createdAt,value
2019-02-23T00:07:44.941Z,98240.27
2019-02-23T00:10:13.407Z,98233.61
2019-02-23T00:12:41.858Z,98237.39
2019-02-23T00:15:10.265Z,98233.06
2019-02-23T00:17:38.655Z,98233.73
2019-02-23T00:20:46.999Z,98235.45
2019-02-23T00:23:55.315Z,98233.65
2019-02-23T00:28:58.137Z,98227.39
2019-02-23T00:34:00.497Z,98229.59
2019-02-23T00:36:28.918Z,98231.88
2019-02-23T00:38:57.313Z,98239.77
2019-02-23T00:41:25.707Z,98234.42
2019-02-23T00:43:54.129Z,98234.91
2019-02-23T00:46:22.525Z,98236.40
2019-02-23T00:48:50.923Z,98241.56
2019-02-23T00:53:53.583Z,98246.94
2019-02-23T00:58:55.626Z,98244.69
2019-02-23T01:01:24.023Z,98238.41
2019-02-23T01:03:52.443Z,98240.11
2019-02-23T01:06:20.845Z,98240.20
2019-02-23T01:08:49.254Z,98248.92
2019-02-23T01:11:17.676Z,98244.12
2019-02-23T01:13:46.073Z,98242.51
2019-02-23T01:16:14.463Z,98240.89
2019-02-23T01:21:17.235Z,98247.83
2019-02-23T01:26:40.381Z,98257.31
2019-02-23T01:29:08.780Z,98259.36
2019-02-23T01:31:37.167Z,98269.87
2019-02-23T01:36:39.969Z,98263.50
2019-02-23T01:47:31.106Z,98268.25
2019-02-23T01:52:33.284Z,98269.38
2019-02-23T01:55:01.718Z,98276.69
2019-02-23T01:57:30.118Z,98278.84
2019-02-23T01:59:58.528Z,98276.53
2019-02-23T02:02:26.991Z,98280.16
2019-02-23T02:05:14.871Z,98281.59
2019-02-23T02:10:36.936Z,98280.16
2019-02-23T02:18:46.772Z,98287.05
2019-02-23T02:23:49.524Z,98292.75
2019-02-23T02:26:17.959Z,98296.33
2019-02-23T02:28:46.364Z,98300.34
2019-02-23T02:31:14.763Z,98299.11
2019-02-23T02:34:21.788Z,98299.42
2019-02-23T02:36:50.188Z,98298.20
2019-02-23T02:39:18.595Z,98309.62
2019-02-23T02:41:47.071Z,98312.64
2019-02-23T02:44:15.472Z,98310.48
2019-02-23T02:46:43.878Z,98305.59
2019-02-23T02:49:12.301Z,98308.22
2019-02-23T02:51:40.700Z,98313.55
2019-02-23T02:54:09.106Z,98307.19
2019-02-23T02:59:11.962Z,98285.67
2019-02-23T03:01:40.441Z,98286.14
2019-02-23T03:04:28.096Z,98290.92
2019-02-23T03:09:30.930Z,98296.84
2019-02-23T03:11:59.318Z,98296.73
2019-02-23T03:17:01.381Z,98294.30
2019-02-23T03:19:29.807Z,98297.28
2019-02-23T03:21:58.254Z,98303.05
2019-02-23T03:24:26.647Z,98297.16
2019-02-23T03:26:55.058Z,98297.23
2019-02-23T03:34:44.834Z,98302.18
2019-02-23T03:37:13.224Z,98312.78
2019-02-23T03:48:03.632Z,98313.52
2019-02-23T03:50:32.036Z,98316.80
2019-02-23T03:53:00.494Z,98323.98
2019-02-23T03:56:08.803Z,98325.73
2019-02-23T03:58:37.294Z,98321.44
2019-02-23T04:01:05.693Z,98315.58
2019-02-23T04:03:34.090Z,98325.30
2019-02-23T04:08:36.214Z,98338.13
2019-02-23T04:13:38.532Z,98344.54
2019-02-23T04:16:06.970Z,98348.47
2019-02-23T04:18:35.365Z,98349.86
2019-02-23T04:21:15.685Z,98349.17
2019-02-23T04:23:44.080Z,98346.11
2019-02-23T04:26:12.483Z,98343.92
2019-02-23T04:28:40.942Z,98342.03
2019-02-23T04:31:09.336Z,98347.83
2019-02-23T04:33:37.731Z,98339.78
2019-02-23T04:38:39.728Z,98335.62
2019-02-23T04:47:16.285Z,98329.01
2019-02-23T04:50:24.616Z,98321.25
2019-02-23T04:52:53.006Z,98322.45
2019-02-23T04:55:21.418Z,98321.25
2019-02-23T05:00:23.500Z,98318.56
2019-02-23T05:02:51.895Z,98311.31
2019-02-23T05:05:20.308Z,98311.57
2019-02-23T05:07:48.698Z,98306.41
2019-02-23T05:10:17.095Z,98305.57
2019-02-23T05:12:45.524Z,98307.39
2019-02-23T05:15:13.980Z,98304.19
2019-02-23T05:17:42.334Z,98305.02
2019-02-23T05:23:00.037Z,98294.80
2019-02-23T05:28:02.843Z,98300.47
2019-02-23T05:33:25.177Z,98296.94
2019-02-23T05:35:53.613Z,98297.56
2019-02-23T05:38:22.045Z,98297.34
2019-02-23T05:40:50.399Z,98296.03
2019-02-23T05:43:18.824Z,98297.59
2019-02-23T05:45:47.226Z,98298.50
2019-02-23T05:51:04.713Z,98308.43
2019-02-23T05:53:33.114Z,98306.03
2019-02-23T05:56:01.502Z,98308.73
2019-02-23T05:58:29.919Z,98313.45
2019-02-23T06:00:58.317Z,98315.84
2019-02-23T06:03:26.716Z,98316.45
2019-02-23T06:05:55.149Z,98322.30
2019-02-23T06:08:23.530Z,98314.08
2019-02-23T06:10:51.977Z,98310.77
2019-02-23T06:13:20.402Z,98315.45
2019-02-23T06:15:48.783Z,98323.55
2019-02-23T06:18:17.177Z,98329.61
2019-02-23T06:23:19.880Z,98327.77
2019-02-23T06:25:48.334Z,98326.45
2019-02-23T06:28:16.725Z,98328.94
2019-02-23T06:30:45.125Z,98342.33
2019-02-23T06:33:13.545Z,98347.26
2019-02-23T06:35:41.934Z,98342.63
2019-02-23T06:38:10.391Z,98343.64
2019-02-23T06:43:13.087Z,98340.69
2019-02-23T06:45:41.558Z,98346.40
2019-02-23T06:48:09.955Z,98347.34
2019-02-23T06:50:38.345Z,98351.53
2019-02-23T06:53:06.775Z,98348.92
2019-02-23T06:55:54.367Z,98360.27
2019-02-23T06:58:22.796Z,98361.57
2019-02-23T07:00:51.185Z,98359.02
2019-02-23T07:03:19.607Z,98358.89
2019-02-23T07:05:48.013Z,98361.73
2019-02-23T07:08:16.423Z,98361.64
2019-02-23T07:10:44.824Z,98360.02
2019-02-23T07:13:13.280Z,98366.47
2019-02-23T07:15:41.684Z,98356.88
2019-02-23T07:18:10.087Z,98356.23
2019-02-23T07:20:44.285Z,98358.99
2019-02-23T07:23:08.623Z,98355.94
2019-02-23T07:25:37.019Z,98350.70
2019-02-23T07:28:17.814Z,98347.31
2019-02-23T07:30:46.211Z,98347.52
2019-02-23T07:33:14.607Z,98347.75
2019-02-23T07:38:16.687Z,98361.97
2019-02-23T07:40:45.077Z,98362.61
2019-02-23T07:45:47.940Z,98368.08
2019-02-23T07:48:16.379Z,98366.47
2019-02-23T07:50:44.777Z,98362.02
2019-02-23T07:53:13.170Z,98362.78
2019-02-23T07:58:15.617Z,98358.16
2019-02-23T08:00:44.104Z,98355.53
2019-02-23T08:03:12.435Z,98352.31
2019-02-23T08:06:00.320Z,98353.02
2019-02-23T08:08:28.745Z,98356.64
2019-02-23T08:10:57.225Z,98357.19
2019-02-23T08:13:25.727Z,98366.67
2019-02-23T08:15:54.122Z,98371.52
2019-02-23T08:18:22.520Z,98368.58
2019-02-23T08:23:25.429Z,98376.21
2019-02-23T08:28:27.539Z,98388.17
2019-02-23T08:31:15.150Z,98382.98
2019-02-23T08:33:43.552Z,98382.53
2019-02-23T08:44:33.475Z,98380.73
2019-02-23T08:47:01.899Z,98372.62
2019-02-23T08:49:30.288Z,98367.23
2019-02-23T08:52:48.723Z,98369.70
2019-02-23T08:55:49.007Z,98363.25
2019-02-23T09:00:51.094Z,98344.09
2019-02-23T09:03:19.532Z,98331.87
2019-02-23T09:05:47.944Z,98338.02
2019-02-23T09:08:16.336Z,98356.72
2019-02-23T09:10:44.764Z,98352.28
2019-02-23T09:13:13.183Z,98355.75
2019-02-23T09:15:41.653Z,98374.72
2019-02-23T09:18:10.076Z,98378.86
2019-02-23T09:20:38.463Z,98374.38
2019-02-23T09:23:06.872Z,98368.13
2019-02-23T09:28:09.181Z,98371.04
2019-02-23T09:33:24.421Z,98371.66
2019-02-23T09:35:52.915Z,98374.05
2019-02-23T09:38:40.555Z,98376.38
2019-02-23T09:41:09.060Z,98385.13
2019-02-23T09:48:59.426Z,98374.89
2019-02-23T09:51:27.865Z,98381.16
2019-02-23T09:54:15.600Z,98382.69
2019-02-23T09:56:44.060Z,98382.63
2019-02-23T09:59:12.459Z,98381.02
2019-02-23T10:01:40.852Z,98386.39
2019-02-23T10:04:09.281Z,98385.73
2019-02-23T10:06:37.675Z,98390.52
2019-02-23T10:09:46.019Z,98386.59
2019-02-23T10:12:14.414Z,98391.75
2019-02-23T10:14:42.826Z,98390.17
2019-02-23T10:17:11.308Z,98391.86
2019-02-23T10:19:39.704Z,98400.39
2019-02-23T10:22:08.096Z,98402.09
2019-02-23T10:24:36.522Z,98396.55
2019-02-23T10:27:24.251Z,98397.20
2019-02-23T10:29:52.669Z,98381.33
2019-02-23T10:32:21.065Z,98379.71
2019-02-23T10:34:49.465Z,98383.75
2019-02-23T10:39:52.305Z,98390.77
2019-02-23T10:42:20.713Z,98389.62
2019-02-23T10:44:49.140Z,98395.45
2019-02-23T10:47:17.509Z,98389.70
2019-02-23T10:52:19.952Z,98392.36
2019-02-23T10:54:48.386Z,98390.64
2019-02-23T10:57:16.771Z,98393.92
2019-02-23T10:59:45.169Z,98397.22
2019-02-23T11:05:48.119Z,98404.52
2019-02-23T11:08:16.531Z,98414.27
2019-02-23T11:11:04.167Z,98416.31
2019-02-23T11:13:32.555Z,98417.38
2019-02-23T11:16:00.967Z,98413.05
2019-02-23T11:18:29.401Z,98410.19
2019-02-23T11:21:16.993Z,98408.45
2019-02-23T11:24:04.774Z,98412.95
2019-02-23T11:26:33.185Z,98418.30
2019-02-23T11:29:01.649Z,98403.30
2019-02-23T11:34:04.005Z,98396.03
2019-02-23T11:36:32.402Z,98392.23
2019-02-23T11:39:00.823Z,98376.94
2019-02-23T11:41:29.247Z,98360.67
2019-02-23T11:43:57.673Z,98368.95
2019-02-23T11:46:26.053Z,98360.80
2019-02-23T11:48:54.455Z,98355.06
2019-02-23T11:51:22.849Z,98348.03
2019-02-23T11:56:25.387Z,98338.19
2019-02-23T11:58:53.781Z,98333.68
2019-02-23T12:03:56.716Z,98327.67
2019-02-23T12:06:25.133Z,98336.33
2019-02-23T12:08:53.547Z,98327.02
2019-02-23T12:11:21.946Z,98331.99
2019-02-23T12:16:24.104Z,98331.95
2019-02-23T12:21:26.702Z,98318.77
2019-02-23T12:24:05.474Z,98314.70
2019-02-23T12:28:58.809Z,98305.34
2019-02-23T12:31:27.213Z,98308.85
2019-02-23T12:36:29.568Z,98293.30
2019-02-23T12:41:31.949Z,98291.59
2019-02-23T12:44:00.340Z,98290.30
2019-02-23T12:46:28.776Z,98290.82
2019-02-23T12:48:57.173Z,98287.11
2019-02-23T12:51:25.570Z,98276.77
2019-02-23T12:56:28.214Z,98270.16
2019-02-23T13:01:30.327Z,98270.61
2019-02-23T13:03:58.799Z,98271.70
2019-02-23T13:06:27.194Z,98268.70
2019-02-23T13:12:29.132Z,98254.02
2019-02-23T13:15:37.570Z,98248.27
2019-02-23T13:18:45.884Z,98253.95
2019-02-23T13:21:52.923Z,98254.30
2019-02-23T13:25:01.239Z,98256.11
2019-02-23T13:28:09.760Z,98248.30
2019-02-23T13:31:18.112Z,98250.34
2019-02-23T13:34:25.129Z,98252.89
2019-02-23T13:37:32.114Z,98247.94
2019-02-23T13:40:39.332Z,98249.14
2019-02-23T13:43:46.329Z,98253.16
2019-02-23T13:46:53.358Z,98239.80
2019-02-23T13:50:00.431Z,98239.66
2019-02-23T13:53:08.824Z,98237.73
2019-02-23T13:56:15.819Z,98240.41
2019-02-23T13:59:22.944Z,98232.94
2019-02-23T14:02:29.940Z,98228.96
2019-02-23T14:05:37.835Z,98236.30
2019-02-23T14:08:46.157Z,98225.70
2019-02-23T14:11:53.197Z,98228.02
2019-02-23T14:15:00.296Z,98218.98
2019-02-23T14:18:08.667Z,98205.52
2019-02-23T14:21:17.045Z,98194.55
2019-02-23T14:24:25.663Z,98194.66
2019-02-23T14:27:33.993Z,98196.59
2019-02-23T14:30:41.009Z,98192.89
2019-02-23T14:33:49.383Z,98186.73
2019-02-23T14:36:57.745Z,98190.70
2019-02-23T14:40:06.151Z,98178.80
2019-02-23T14:43:14.649Z,98175.58
2019-02-23T14:46:22.959Z,98170.86
2019-02-23T14:49:31.490Z,98167.98
2019-02-23T14:52:39.825Z,98162.08
2019-02-23T14:55:48.253Z,98168.59
2019-02-23T14:58:56.680Z,98165.31
2019-02-23T15:02:05.341Z,98167.84
2019-02-23T15:05:13.713Z,98172.42
2019-02-23T15:08:20.825Z,98171.21
2019-02-23T15:11:27.818Z,98170.64
2019-02-23T15:14:34.917Z,98170.38
2019-02-23T15:17:43.235Z,98173.50
2019-02-23T15:20:51.577Z,98170.99
2019-02-23T15:23:59.953Z,98165.56
2019-02-23T15:27:06.965Z,98171.31
2019-02-23T15:30:15.276Z,98161.33
2019-02-23T15:33:23.739Z,98156.87
2019-02-23T15:36:32.055Z,98162.14
2019-02-23T15:39:40.598Z,98156.83
2019-02-23T15:42:48.969Z,98161.63
2019-02-23T15:45:29.855Z,98163.14
2019-02-23T15:48:38.219Z,98153.66
2019-02-23T15:51:06.631Z,98155.89
2019-02-23T15:53:35.015Z,98145.42
2019-02-23T15:56:03.426Z,98156.41
2019-02-23T15:58:51.126Z,98164.78
2019-02-23T16:06:41.593Z,98170.48
2019-02-23T16:09:49.976Z,98166.20
2019-02-23T16:12:18.385Z,98166.16
2019-02-23T16:14:46.862Z,98173.25
2019-02-23T16:17:15.314Z,98178.05
2019-02-23T16:19:43.715Z,98177.55
2019-02-23T16:24:59.640Z,98184.88
2019-02-23T16:27:28.052Z,98186.37
2019-02-23T16:29:56.445Z,98194.26
2019-02-23T16:32:24.926Z,98198.48
2019-02-23T16:34:53.333Z,98197.00
2019-02-23T16:37:21.806Z,98204.75
2019-02-23T16:42:24.149Z,98209.48
2019-02-23T16:44:52.574Z,98209.03
2019-02-23T16:47:20.979Z,98210.57
2019-02-23T16:49:49.382Z,98207.70
2019-02-23T16:54:51.570Z,98217.34
2019-02-23T16:57:19.967Z,98214.83
2019-02-23T16:59:48.408Z,98218.72
2019-02-23T17:02:16.926Z,98220.22
2019-02-23T17:04:53.592Z,98226.62
2019-02-23T17:09:49.810Z,98220.61
2019-02-23T17:12:18.231Z,98231.53
2019-02-23T17:15:05.851Z,98233.95
2019-02-23T17:17:34.238Z,98241.57
2019-02-23T17:25:44.996Z,98251.72
2019-02-23T17:31:06.378Z,98257.55
2019-02-23T17:33:34.824Z,98260.94
2019-02-23T17:36:03.260Z,98263.66
2019-02-23T17:38:31.631Z,98264.22
2019-02-23T17:43:33.867Z,98265.61
2019-02-23T17:46:02.267Z,98262.22
2019-02-23T17:48:42.935Z,98259.96
2019-02-23T17:51:11.344Z,98256.84
2019-02-23T17:53:39.733Z,98259.45
2019-02-23T17:56:12.289Z,98261.13
2019-02-23T17:58:57.638Z,98257.83
2019-02-23T18:04:00.220Z,98262.42
2019-02-23T18:06:28.653Z,98264.27
2019-02-23T18:08:57.042Z,98264.42
2019-02-23T18:11:25.444Z,98268.17
2019-02-23T18:16:27.871Z,98262.48
2019-02-23T18:18:57.571Z,98266.42
2019-02-23T18:21:26.425Z,98264.19
2019-02-23T18:23:54.851Z,98261.41
2019-02-23T18:28:57.627Z,98262.37
2019-02-23T18:33:59.533Z,98268.80
2019-02-23T18:36:27.928Z,98264.06
2019-02-23T18:39:15.618Z,98260.75
2019-02-23T18:41:44.029Z,98262.50
2019-02-23T18:44:12.421Z,98269.41
2019-02-23T18:49:14.525Z,98265.66
2019-02-23T18:51:42.967Z,98279.29
2019-02-23T18:54:11.353Z,98283.77
2019-02-23T18:56:39.756Z,98274.58
2019-02-23T19:01:42.466Z,98275.62
2019-02-23T19:04:12.281Z,98280.65
2019-02-23T19:06:41.017Z,98278.36
2019-02-23T19:09:09.417Z,98284.67
2019-02-23T19:14:12.540Z,98278.52
2019-02-23T19:17:00.103Z,98281.70
2019-02-23T19:19:28.547Z,98279.73
2019-02-23T19:21:56.994Z,98283.41
2019-02-23T19:26:59.702Z,98272.31
2019-02-23T19:29:28.131Z,98275.33
2019-02-23T19:32:15.855Z,98273.33
2019-02-23T19:37:18.574Z,98270.48
2019-02-23T19:39:47.007Z,98283.95
2019-02-23T19:42:15.420Z,98286.34
2019-02-23T19:44:43.826Z,98283.10
2019-02-23T19:47:12.271Z,98285.83
2019-02-23T19:49:40.665Z,98288.88
2019-02-23T19:52:09.070Z,98289.64
2019-02-23T19:57:11.768Z,98287.80
2019-02-23T19:59:59.777Z,98293.91
2019-02-23T20:02:28.167Z,98292.44
2019-02-23T20:04:56.558Z,98289.91
2019-02-23T20:07:24.998Z,98289.75
2019-02-23T20:09:53.402Z,98294.50
2019-02-23T20:12:21.826Z,98289.64
2019-02-23T20:14:50.257Z,98283.10
2019-02-23T20:17:18.655Z,98277.10
2019-02-23T20:19:47.063Z,98267.71
2019-02-23T20:24:49.902Z,98272.42
2019-02-23T20:29:52.594Z,98270.55
2019-02-23T20:34:54.512Z,98273.53
2019-02-23T20:37:22.915Z,98273.33
2019-02-23T20:42:24.806Z,98260.39
2019-02-23T20:44:53.200Z,98267.16
2019-02-23T20:47:21.627Z,98267.37
2019-02-23T20:50:04.491Z,98277.76
2019-02-23T20:55:14.635Z,98265.22
2019-02-23T20:57:43.007Z,98262.07
2019-02-23T21:00:51.472Z,98262.27
2019-02-23T21:03:19.830Z,98264.11
2019-02-23T21:05:48.241Z,98275.11
2019-02-23T21:10:50.674Z,98276.17
2019-02-23T21:13:19.069Z,98266.80
2019-02-23T21:18:21.486Z,98269.59
2019-02-23T21:20:51.605Z,98275.29
2019-02-23T21:23:20.017Z,98275.75
2019-02-23T21:25:48.417Z,98279.98
2019-02-23T21:28:16.844Z,98283.91
2019-02-23T21:30:45.246Z,98280.30
2019-02-23T21:33:13.634Z,98285.02
2019-02-23T21:38:16.006Z,98272.72
2019-02-23T21:40:44.397Z,98282.05
2019-02-23T21:43:12.846Z,98281.38
2019-02-23T21:45:41.245Z,98280.06
2019-02-23T21:48:09.642Z,98279.97
2019-02-23T21:50:38.075Z,98285.66
2019-02-23T21:53:06.472Z,98287.90
2019-02-23T21:55:34.869Z,98283.64
2019-02-23T22:00:37.607Z,98289.80
2019-02-23T22:03:07.132Z,98278.48
2019-02-23T22:05:36.151Z,98278.42
2019-02-23T22:08:04.548Z,98275.61
2019-02-23T22:13:06.567Z,98272.13
2019-02-23T22:15:34.975Z,98269.27
2019-02-23T22:20:37.746Z,98271.27
2019-02-23T22:25:39.989Z,98276.48
2019-02-23T22:28:08.389Z,98284.00
2019-02-23T22:30:36.829Z,98278.51
2019-02-23T22:33:05.232Z,98279.61
2019-02-23T22:35:33.629Z,98272.96
2019-02-23T22:38:02.062Z,98285.55
2019-02-23T22:40:30.448Z,98281.95
2019-02-23T22:42:58.847Z,98275.75
2019-02-23T22:45:27.317Z,98276.86
2019-02-23T22:47:55.717Z,98277.01
2019-02-23T22:50:24.123Z,98272.42
2019-02-23T22:55:26.367Z,98268.33
2019-02-23T22:57:54.792Z,98266.95
2019-02-23T23:03:12.277Z,98248.19
2019-02-23T23:11:02.449Z,98250.97
2019-02-23T23:16:04.933Z,98251.81
2019-02-23T23:18:33.357Z,98242.69
2019-02-23T23:21:01.749Z,98240.34
2019-02-23T23:23:30.144Z,98238.11
2019-02-23T23:31:06.395Z,98245.03
2019-02-23T23:36:09.446Z,98246.42
2019-02-23T23:41:12.170Z,98246.22
2019-02-23T23:43:40.598Z,98244.14
2019-02-23T23:46:08.997Z,98240.08
2019-02-23T23:48:37.394Z,98237.62
2019-02-23T23:51:05.879Z,98238.11
2019-02-23T23:54:14.217Z,98236.17
2019-02-23T23:59:16.597Z,98240.14
